sensor_id;sensor_type;location;lat;lon;timestamp;P1;durP1;ratioP1;P2;durP2;ratioP2
51602;SDS011;37954;51.980;5.850;2023-02-03T00:03:08;9.10;;;2.33;;
51602;SDS011;37954;51.980;5.850;2023-02-03T00:07:20;7.50;;;2.10;;
51602;SDS011;37954;51.980;5.850;2023-02-03T00:11:32;3.80;;;2.23;;
51602;SDS011;37954;51.980;5.850;2023-02-03T00:15:44;8.57;;;2.67;;
51602;SDS011;37954;51.980;5.850;2023-02-03T00:19:55;8.60;;;2.37;;
51602;SDS011;37954;51.980;5.850;2023-02-03T00:24:07;6.30;;;2.07;;
51602;SDS011;37954;51.980;5.850;2023-02-03T00:28:19;7.90;;;2.27;;
51602;SDS011;37954;51.980;5.850;2023-02-03T00:32:30;8.87;;;2.63;;
51602;SDS011;37954;51.980;5.850;2023-02-03T00:36:42;8.23;;;2.43;;
51602;SDS011;37954;51.980;5.850;2023-02-03T00:40:54;8.43;;;2.37;;
51602;SDS011;37954;51.980;5.850;2023-02-03T00:45:06;6.80;;;2.40;;
51602;SDS011;37954;51.980;5.850;2023-02-03T00:49:18;5.73;;;2.13;;
51602;SDS011;37954;51.980;5.850;2023-02-03T00:53:30;6.87;;;2.00;;
51602;SDS011;37954;51.980;5.850;2023-02-03T00:57:41;8.17;;;1.90;;
51602;SDS011;37954;51.980;5.850;2023-02-03T01:01:54;6.40;;;2.40;;
51602;SDS011;37954;51.980;5.850;2023-02-03T01:06:14;7.17;;;2.27;;
51602;SDS011;37954;51.980;5.850;2023-02-03T01:10:30;5.33;;;2.67;;
51602;SDS011;37954;51.980;5.850;2023-02-03T01:14:41;8.50;;;3.07;;
51602;SDS011;37954;51.980;5.850;2023-02-03T01:18:53;6.40;;;2.50;;
51602;SDS011;37954;51.980;5.850;2023-02-03T01:23:05;7.47;;;2.27;;
51602;SDS011;37954;51.980;5.850;2023-02-03T01:27:17;8.23;;;2.27;;
51602;SDS011;37954;51.980;5.850;2023-02-03T01:31:33;8.23;;;2.83;;
51602;SDS011;37954;51.980;5.850;2023-02-03T01:35:47;5.57;;;2.33;;
51602;SDS011;37954;51.980;5.850;2023-02-03T01:39:58;7.63;;;2.33;;
51602;SDS011;37954;51.980;5.850;2023-02-03T01:53:23;7.50;;;2.93;;
51602;SDS011;37954;51.980;5.850;2023-02-03T01:57:45;7.30;;;2.57;;
51602;SDS011;37954;51.980;5.850;2023-02-03T02:02:01;6.17;;;2.13;;
51602;SDS011;37954;51.980;5.850;2023-02-03T02:06:14;5.80;;;2.00;;
51602;SDS011;37954;51.980;5.850;2023-02-03T02:10:27;7.60;;;2.13;;
51602;SDS011;37954;51.980;5.850;2023-02-03T02:14:40;4.17;;;2.10;;
51602;SDS011;37954;51.980;5.850;2023-02-03T02:32:42;4.67;;;2.10;;
51602;SDS011;37954;51.980;5.850;2023-02-03T02:46:00;6.63;;;2.15;;
51602;SDS011;37954;51.980;5.850;2023-02-03T02:50:20;5.65;;;1.60;;
51602;SDS011;37954;51.980;5.850;2023-02-03T02:54:37;4.33;;;1.57;;
51602;SDS011;37954;51.980;5.850;2023-02-03T02:58:52;6.47;;;1.70;;
51602;SDS011;37954;51.980;5.850;2023-02-03T03:03:16;8.57;;;2.23;;
51602;SDS011;37954;51.980;5.850;2023-02-03T03:07:28;7.10;;;2.00;;
51602;SDS011;37954;51.980;5.850;2023-02-03T03:11:50;4.80;;;1.75;;
51602;SDS011;37954;51.980;5.850;2023-02-03T03:16:08;12.05;;;2.60;;
51602;SDS011;37954;51.980;5.850;2023-02-03T03:20:24;6.07;;;2.03;;
51602;SDS011;37954;51.980;5.850;2023-02-03T03:24:39;7.70;;;2.20;;
51602;SDS011;37954;51.980;5.850;2023-02-03T03:29:06;6.57;;;1.50;;
51602;SDS011;37954;51.980;5.850;2023-02-03T03:33:25;4.97;;;1.77;;
51602;SDS011;37954;51.980;5.850;2023-02-03T03:37:43;6.83;;;2.33;;
51602;SDS011;37954;51.980;5.850;2023-02-03T03:42:05;7.10;;;1.70;;
51602;SDS011;37954;51.980;5.850;2023-02-03T03:46:36;5.23;;;1.90;;
51602;SDS011;37954;51.980;5.850;2023-02-03T03:51:14;6.80;;;1.80;;
51602;SDS011;37954;51.980;5.850;2023-02-03T03:55:30;5.17;;;1.97;;
51602;SDS011;37954;51.980;5.850;2023-02-03T03:59:46;5.67;;;2.20;;
51602;SDS011;37954;51.980;5.850;2023-02-03T04:04:01;3.13;;;1.63;;
51602;SDS011;37954;51.980;5.850;2023-02-03T04:08:16;7.53;;;1.80;;
51602;SDS011;37954;51.980;5.850;2023-02-03T04:12:27;5.60;;;1.87;;
51602;SDS011;37954;51.980;5.850;2023-02-03T04:16:39;4.70;;;2.13;;
51602;SDS011;37954;51.980;5.850;2023-02-03T04:20:50;6.65;;;2.17;;
51602;SDS011;37954;51.980;5.850;2023-02-03T04:25:02;5.10;;;2.10;;
51602;SDS011;37954;51.980;5.850;2023-02-03T04:29:14;6.97;;;1.80;;
51602;SDS011;37954;51.980;5.850;2023-02-03T04:33:25;4.38;;;1.83;;
51602;SDS011;37954;51.980;5.850;2023-02-03T04:37:37;9.57;;;1.90;;
51602;SDS011;37954;51.980;5.850;2023-02-03T04:41:48;4.10;;;1.40;;
51602;SDS011;37954;51.980;5.850;2023-02-03T04:46:00;7.93;;;1.95;;
51602;SDS011;37954;51.980;5.850;2023-02-03T04:50:12;7.85;;;1.88;;
51602;SDS011;37954;51.980;5.850;2023-02-03T04:54:23;6.43;;;1.60;;
51602;SDS011;37954;51.980;5.850;2023-02-03T04:58:35;6.45;;;1.70;;
51602;SDS011;37954;51.980;5.850;2023-02-03T05:02:47;3.43;;;1.83;;
51602;SDS011;37954;51.980;5.850;2023-02-03T05:06:59;7.83;;;1.80;;
51602;SDS011;37954;51.980;5.850;2023-02-03T05:11:10;9.13;;;2.33;;
51602;SDS011;37954;51.980;5.850;2023-02-03T05:15:22;5.18;;;1.90;;
51602;SDS011;37954;51.980;5.850;2023-02-03T05:19:33;4.80;;;1.90;;
51602;SDS011;37954;51.980;5.850;2023-02-03T05:23:45;4.77;;;1.93;;
51602;SDS011;37954;51.980;5.850;2023-02-03T05:27:56;6.20;;;2.10;;
51602;SDS011;37954;51.980;5.850;2023-02-03T05:32:08;4.07;;;1.57;;
51602;SDS011;37954;51.980;5.850;2023-02-03T05:36:20;6.47;;;1.50;;
51602;SDS011;37954;51.980;5.850;2023-02-03T05:40:31;6.00;;;1.93;;
51602;SDS011;37954;51.980;5.850;2023-02-03T05:45:01;5.95;;;1.48;;
51602;SDS011;37954;51.980;5.850;2023-02-03T05:49:13;3.37;;;1.53;;
51602;SDS011;37954;51.980;5.850;2023-02-03T05:53:25;4.93;;;1.80;;
51602;SDS011;37954;51.980;5.850;2023-02-03T05:57:37;4.57;;;1.60;;
51602;SDS011;37954;51.980;5.850;2023-02-03T06:01:48;5.07;;;1.60;;
51602;SDS011;37954;51.980;5.850;2023-02-03T06:06:00;6.97;;;1.80;;
51602;SDS011;37954;51.980;5.850;2023-02-03T06:10:12;2.73;;;1.93;;
51602;SDS011;37954;51.980;5.850;2023-02-03T06:14:24;7.00;;;2.65;;
51602;SDS011;37954;51.980;5.850;2023-02-03T06:18:35;7.13;;;1.63;;
51602;SDS011;37954;51.980;5.850;2023-02-03T06:22:47;6.10;;;2.03;;
51602;SDS011;37954;51.980;5.850;2023-02-03T06:26:59;7.85;;;2.58;;
51602;SDS011;37954;51.980;5.850;2023-02-03T06:31:10;7.75;;;2.50;;
51602;SDS011;37954;51.980;5.850;2023-02-03T06:35:22;6.17;;;2.33;;
51602;SDS011;37954;51.980;5.850;2023-02-03T06:39:33;9.00;;;1.97;;
51602;SDS011;37954;51.980;5.850;2023-02-03T06:43:45;7.30;;;2.50;;
51602;SDS011;37954;51.980;5.850;2023-02-03T06:47:56;5.40;;;2.30;;
51602;SDS011;37954;51.980;5.850;2023-02-03T06:52:08;7.72;;;2.35;;
51602;SDS011;37954;51.980;5.850;2023-02-03T06:56:20;9.53;;;2.83;;
51602;SDS011;37954;51.980;5.850;2023-02-03T07:00:31;6.10;;;2.13;;
51602;SDS011;37954;51.980;5.850;2023-02-03T07:04:43;8.98;;;2.38;;
51602;SDS011;37954;51.980;5.850;2023-02-03T07:08:55;5.80;;;2.10;;
51602;SDS011;37954;51.980;5.850;2023-02-03T07:13:09;6.28;;;1.77;;
51602;SDS011;37954;51.980;5.850;2023-02-03T07:17:20;7.80;;;1.90;;
51602;SDS011;37954;51.980;5.850;2023-02-03T07:21:32;4.50;;;1.50;;
51602;SDS011;37954;51.980;5.850;2023-02-03T07:30:21;4.60;;;1.70;;
51602;SDS011;37954;51.980;5.850;2023-02-03T07:34:33;4.93;;;1.87;;
51602;SDS011;37954;51.980;5.850;2023-02-03T07:38:44;6.37;;;2.40;;
51602;SDS011;37954;51.980;5.850;2023-02-03T07:42:56;5.00;;;1.83;;
51602;SDS011;37954;51.980;5.850;2023-02-03T07:47:07;6.07;;;2.47;;
51602;SDS011;37954;51.980;5.850;2023-02-03T07:51:20;9.03;;;2.53;;
51602;SDS011;37954;51.980;5.850;2023-02-03T07:55:32;4.47;;;1.70;;
51602;SDS011;37954;51.980;5.850;2023-02-03T07:59:44;6.75;;;1.75;;
51602;SDS011;37954;51.980;5.850;2023-02-03T08:03:56;7.57;;;2.00;;
51602;SDS011;37954;51.980;5.850;2023-02-03T08:08:07;6.13;;;2.13;;
51602;SDS011;37954;51.980;5.850;2023-02-03T08:12:19;7.43;;;2.20;;
51602;SDS011;37954;51.980;5.850;2023-02-03T08:16:31;9.57;;;2.35;;
51602;SDS011;37954;51.980;5.850;2023-02-03T08:20:42;4.88;;;1.85;;
51602;SDS011;37954;51.980;5.850;2023-02-03T08:24:54;4.65;;;2.50;;
51602;SDS011;37954;51.980;5.850;2023-02-03T08:29:06;4.60;;;1.80;;
51602;SDS011;37954;51.980;5.850;2023-02-03T08:33:18;3.42;;;1.58;;
51602;SDS011;37954;51.980;5.850;2023-02-03T08:37:29;6.28;;;1.67;;
51602;SDS011;37954;51.980;5.850;2023-02-03T08:41:42;7.13;;;1.80;;
51602;SDS011;37954;51.980;5.850;2023-02-03T08:45:54;7.45;;;1.73;;
51602;SDS011;37954;51.980;5.850;2023-02-03T08:50:06;4.20;;;1.92;;
51602;SDS011;37954;51.980;5.850;2023-02-03T08:54:19;6.43;;;2.40;;
51602;SDS011;37954;51.980;5.850;2023-02-03T08:58:30;6.68;;;1.85;;
51602;SDS011;37954;51.980;5.850;2023-02-03T09:02:42;6.13;;;1.60;;
51602;SDS011;37954;51.980;5.850;2023-02-03T09:06:54;6.75;;;2.10;;
51602;SDS011;37954;51.980;5.850;2023-02-03T09:11:09;6.40;;;1.80;;
51602;SDS011;37954;51.980;5.850;2023-02-03T09:15:22;3.47;;;1.30;;
51602;SDS011;37954;51.980;5.850;2023-02-03T09:19:33;7.20;;;2.33;;
51602;SDS011;37954;51.980;5.850;2023-02-03T09:23:47;4.47;;;1.33;;
51602;SDS011;37954;51.980;5.850;2023-02-03T09:28:01;7.50;;;2.00;;
51602;SDS011;37954;51.980;5.850;2023-02-03T09:32:13;5.63;;;1.73;;
51602;SDS011;37954;51.980;5.850;2023-02-03T09:36:26;4.32;;;1.50;;
51602;SDS011;37954;51.980;5.850;2023-02-03T09:40:37;7.75;;;2.63;;
51602;SDS011;37954;51.980;5.850;2023-02-03T09:44:59;5.65;;;2.47;;
51602;SDS011;37954;51.980;5.850;2023-02-03T09:54:26;6.35;;;2.42;;
51602;SDS011;37954;51.980;5.850;2023-02-03T09:58:32;5.65;;;1.70;;
51602;SDS011;37954;51.980;5.850;2023-02-03T10:03:03;2.53;;;1.30;;
51602;SDS011;37954;51.980;5.850;2023-02-03T10:17:23;5.65;;;1.60;;
51602;SDS011;37954;51.980;5.850;2023-02-03T10:21:46;3.28;;;1.67;;
51602;SDS011;37954;51.980;5.850;2023-02-03T10:26:02;4.45;;;2.00;;
51602;SDS011;37954;51.980;5.850;2023-02-03T10:30:19;5.53;;;1.92;;
51602;SDS011;37954;51.980;5.850;2023-02-03T10:34:32;5.60;;;2.05;;
51602;SDS011;37954;51.980;5.850;2023-02-03T10:42:56;6.88;;;1.73;;
51602;SDS011;37954;51.980;5.850;2023-02-03T10:51:50;6.70;;;2.03;;
51602;SDS011;37954;51.980;5.850;2023-02-03T11:00:27;4.13;;;2.00;;
51602;SDS011;37954;51.980;5.850;2023-02-03T11:04:41;4.57;;;2.20;;
51602;SDS011;37954;51.980;5.850;2023-02-03T11:08:53;1.33;;;1.10;;
51602;SDS011;37954;51.980;5.850;2023-02-03T11:13:26;8.00;;;1.75;;
51602;SDS011;37954;51.980;5.850;2023-02-03T11:17:37;6.45;;;1.67;;
51602;SDS011;37954;51.980;5.850;2023-02-03T11:21:54;8.05;;;2.38;;
51602;SDS011;37954;51.980;5.850;2023-02-03T11:26:11;5.80;;;2.50;;
51602;SDS011;37954;51.980;5.850;2023-02-03T11:30:25;4.03;;;1.67;;
51602;SDS011;37954;51.980;5.850;2023-02-03T11:34:45;2.35;;;1.42;;
51602;SDS011;37954;51.980;5.850;2023-02-03T11:39:47;7.95;;;2.05;;
51602;SDS011;37954;51.980;5.850;2023-02-03T11:43:45;4.20;;;1.60;;
51602;SDS011;37954;51.980;5.850;2023-02-03T11:57:04;6.25;;;1.65;;
51602;SDS011;37954;51.980;5.850;2023-02-03T12:06:20;3.55;;;1.63;;
51602;SDS011;37954;51.980;5.850;2023-02-03T12:10:50;4.60;;;1.80;;
51602;SDS011;37954;51.980;5.850;2023-02-03T12:37:40;7.70;;;2.35;;
51602;SDS011;37954;51.980;5.850;2023-02-03T12:42:01;8.75;;;2.83;;
51602;SDS011;37954;51.980;5.850;2023-02-03T12:46:18;5.38;;;2.05;;
51602;SDS011;37954;51.980;5.850;2023-02-03T12:50:40;5.43;;;2.33;;
51602;SDS011;37954;51.980;5.850;2023-02-03T12:59:37;6.43;;;1.73;;
51602;SDS011;37954;51.980;5.850;2023-02-03T13:03:54;7.65;;;1.77;;
51602;SDS011;37954;51.980;5.850;2023-02-03T13:08:13;7.07;;;2.10;;
51602;SDS011;37954;51.980;5.850;2023-02-03T13:12:34;9.82;;;2.42;;
51602;SDS011;37954;51.980;5.850;2023-02-03T13:16:52;8.88;;;2.10;;
51602;SDS011;37954;51.980;5.850;2023-02-03T13:43:39;10.32;;;2.53;;
51602;SDS011;37954;51.980;5.850;2023-02-03T13:48:05;8.55;;;2.75;;
51602;SDS011;37954;51.980;5.850;2023-02-03T13:52:33;10.23;;;2.95;;
51602;SDS011;37954;51.980;5.850;2023-02-03T13:56:59;9.25;;;2.92;;
51602;SDS011;37954;51.980;5.850;2023-02-03T14:05:46;5.68;;;2.85;;
51602;SDS011;37954;51.980;5.850;2023-02-03T14:18:42;8.23;;;2.40;;
51602;SDS011;37954;51.980;5.850;2023-02-03T14:22:58;11.63;;;2.67;;
51602;SDS011;37954;51.980;5.850;2023-02-03T14:27:26;12.85;;;2.55;;
51602;SDS011;37954;51.980;5.850;2023-02-03T14:36:24;9.60;;;3.38;;
51602;SDS011;37954;51.980;5.850;2023-02-03T14:45:10;11.20;;;2.80;;
51602;SDS011;37954;51.980;5.850;2023-02-03T14:58:20;15.93;;;3.72;;
51602;SDS011;37954;51.980;5.850;2023-02-03T15:03:14;11.60;;;4.80;;
51602;SDS011;37954;51.980;5.850;2023-02-03T15:07:36;18.42;;;3.38;;
51602;SDS011;37954;51.980;5.850;2023-02-03T15:11:59;14.95;;;3.20;;
51602;SDS011;37954;51.980;5.850;2023-02-03T15:16:15;11.88;;;3.22;;
51602;SDS011;37954;51.980;5.850;2023-02-03T15:25:00;12.07;;;2.70;;
51602;SDS011;37954;51.980;5.850;2023-02-03T15:29:19;14.98;;;3.50;;
51602;SDS011;37954;51.980;5.850;2023-02-03T15:33:38;12.02;;;3.20;;
51602;SDS011;37954;51.980;5.850;2023-02-03T15:37:52;10.60;;;3.40;;
51602;SDS011;37954;51.980;5.850;2023-02-03T15:42:12;17.02;;;5.20;;
51602;SDS011;37954;51.980;5.850;2023-02-03T15:46:37;9.82;;;3.15;;
51602;SDS011;37954;51.980;5.850;2023-02-03T15:50:53;19.88;;;4.60;;
51602;SDS011;37954;51.980;5.850;2023-02-03T15:55:29;14.50;;;3.15;;
51602;SDS011;37954;51.980;5.850;2023-02-03T15:59:52;11.45;;;3.63;;
51602;SDS011;37954;51.980;5.850;2023-02-03T16:08:45;11.90;;;2.95;;
51602;SDS011;37954;51.980;5.850;2023-02-03T16:13:13;7.22;;;3.22;;
51602;SDS011;37954;51.980;5.850;2023-02-03T16:17:41;14.50;;;5.72;;
51602;SDS011;37954;51.980;5.850;2023-02-03T16:22:23;13.40;;;3.75;;
51602;SDS011;37954;51.980;5.850;2023-02-03T16:26:49;11.02;;;2.78;;
51602;SDS011;37954;51.980;5.850;2023-02-03T16:31:14;12.95;;;2.72;;
51602;SDS011;37954;51.980;5.850;2023-02-03T16:35:49;10.25;;;3.67;;
51602;SDS011;37954;51.980;5.850;2023-02-03T16:40:20;8.35;;;3.47;;
51602;SDS011;37954;51.980;5.850;2023-02-03T16:44:51;11.50;;;3.03;;
51602;SDS011;37954;51.980;5.850;2023-02-03T16:49:22;10.50;;;2.47;;
51602;SDS011;37954;51.980;5.850;2023-02-03T16:54:00;9.02;;;2.92;;
51602;SDS011;37954;51.980;5.850;2023-02-03T16:58:12;15.55;;;4.00;;
51602;SDS011;37954;51.980;5.850;2023-02-03T17:02:23;10.63;;;3.07;;
51602;SDS011;37954;51.980;5.850;2023-02-03T17:06:36;13.95;;;4.40;;
51602;SDS011;37954;51.980;5.850;2023-02-03T17:10:48;10.97;;;3.20;;
51602;SDS011;37954;51.980;5.850;2023-02-03T17:15:01;13.73;;;4.38;;
51602;SDS011;37954;51.980;5.850;2023-02-03T17:19:12;17.30;;;4.75;;
51602;SDS011;37954;51.980;5.850;2023-02-03T17:23:24;9.10;;;4.17;;
51602;SDS011;37954;51.980;5.850;2023-02-03T17:27:36;15.27;;;5.30;;
51602;SDS011;37954;51.980;5.850;2023-02-03T17:31:47;19.10;;;6.73;;
51602;SDS011;37954;51.980;5.850;2023-02-03T17:36:03;12.80;;;4.87;;
51602;SDS011;37954;51.980;5.850;2023-02-03T17:40:17;12.57;;;4.60;;
51602;SDS011;37954;51.980;5.850;2023-02-03T17:44:46;14.82;;;5.20;;
51602;SDS011;37954;51.980;5.850;2023-02-03T17:49:15;21.80;;;6.60;;
51602;SDS011;37954;51.980;5.850;2023-02-03T17:53:44;22.65;;;6.82;;
51602;SDS011;37954;51.980;5.850;2023-02-03T17:57:57;16.07;;;6.47;;
51602;SDS011;37954;51.980;5.850;2023-02-03T18:02:09;11.53;;;4.50;;
51602;SDS011;37954;51.980;5.850;2023-02-03T18:06:21;35.67;;;13.30;;
51602;SDS011;37954;51.980;5.850;2023-02-03T18:10:35;13.73;;;4.20;;
51602;SDS011;37954;51.980;5.850;2023-02-03T18:14:47;15.77;;;4.57;;
51602;SDS011;37954;51.980;5.850;2023-02-03T18:19:00;16.10;;;6.63;;
51602;SDS011;37954;51.980;5.850;2023-02-03T18:23:13;15.30;;;4.60;;
51602;SDS011;37954;51.980;5.850;2023-02-03T18:27:25;26.77;;;14.60;;
51602;SDS011;37954;51.980;5.850;2023-02-03T18:31:37;20.17;;;7.13;;
51602;SDS011;37954;51.980;5.850;2023-02-03T18:35:50;13.23;;;5.10;;
51602;SDS011;37954;51.980;5.850;2023-02-03T18:40:02;17.90;;;6.03;;
51602;SDS011;37954;51.980;5.850;2023-02-03T18:44:14;13.33;;;4.77;;
51602;SDS011;37954;51.980;5.850;2023-02-03T18:48:25;19.23;;;7.70;;
51602;SDS011;37954;51.980;5.850;2023-02-03T18:52:37;16.03;;;6.00;;
51602;SDS011;37954;51.980;5.850;2023-02-03T18:56:49;15.60;;;4.90;;
51602;SDS011;37954;51.980;5.850;2023-02-03T19:01:00;17.90;;;5.30;;
51602;SDS011;37954;51.980;5.850;2023-02-03T19:05:12;15.33;;;6.57;;
51602;SDS011;37954;51.980;5.850;2023-02-03T19:13:57;20.97;;;10.47;;
51602;SDS011;37954;51.980;5.850;2023-02-03T19:18:09;12.53;;;3.73;;
51602;SDS011;37954;51.980;5.850;2023-02-03T19:22:21;10.20;;;4.27;;
51602;SDS011;37954;51.980;5.850;2023-02-03T19:26:33;17.07;;;4.30;;
51602;SDS011;37954;51.980;5.850;2023-02-03T19:30:45;10.57;;;4.23;;
51602;SDS011;37954;51.980;5.850;2023-02-03T19:34:59;16.67;;;4.27;;
51602;SDS011;37954;51.980;5.850;2023-02-03T19:39:11;14.73;;;4.00;;
51602;SDS011;37954;51.980;5.850;2023-02-03T19:43:23;16.80;;;5.63;;
51602;SDS011;37954;51.980;5.850;2023-02-03T19:47:35;23.33;;;10.57;;
51602;SDS011;37954;51.980;5.850;2023-02-03T19:51:47;17.80;;;5.03;;
51602;SDS011;37954;51.980;5.850;2023-02-03T19:55:58;21.10;;;9.90;;
51602;SDS011;37954;51.980;5.850;2023-02-03T20:00:10;19.27;;;5.67;;
51602;SDS011;37954;51.980;5.850;2023-02-03T20:04:27;13.93;;;4.13;;
51602;SDS011;37954;51.980;5.850;2023-02-03T20:08:38;17.80;;;4.23;;
51602;SDS011;37954;51.980;5.850;2023-02-03T20:12:50;14.00;;;5.83;;
51602;SDS011;37954;51.980;5.850;2023-02-03T20:17:04;11.73;;;3.77;;
51602;SDS011;37954;51.980;5.850;2023-02-03T20:21:17;12.67;;;3.70;;
51602;SDS011;37954;51.980;5.850;2023-02-03T20:25:29;20.37;;;6.17;;
51602;SDS011;37954;51.980;5.850;2023-02-03T20:29:40;11.73;;;4.40;;
51602;SDS011;37954;51.980;5.850;2023-02-03T20:33:52;17.87;;;6.03;;
51602;SDS011;37954;51.980;5.850;2023-02-03T20:38:04;12.43;;;4.07;;
51602;SDS011;37954;51.980;5.850;2023-02-03T20:42:15;14.83;;;6.47;;
51602;SDS011;37954;51.980;5.850;2023-02-03T20:46:28;15.70;;;3.67;;
51602;SDS011;37954;51.980;5.850;2023-02-03T20:50:40;13.27;;;4.30;;
51602;SDS011;37954;51.980;5.850;2023-02-03T20:54:57;12.50;;;4.97;;
51602;SDS011;37954;51.980;5.850;2023-02-03T20:59:10;14.37;;;3.47;;
51602;SDS011;37954;51.980;5.850;2023-02-03T21:03:23;34.20;;;18.47;;
51602;SDS011;37954;51.980;5.850;2023-02-03T21:07:55;16.57;;;6.50;;
51602;SDS011;37954;51.980;5.850;2023-02-03T21:12:12;11.97;;;4.73;;
51602;SDS011;37954;51.980;5.850;2023-02-03T21:16:27;21.40;;;6.73;;
51602;SDS011;37954;51.980;5.850;2023-02-03T21:20:45;14.47;;;4.23;;
51602;SDS011;37954;51.980;5.850;2023-02-03T21:24:59;13.50;;;4.23;;
51602;SDS011;37954;51.980;5.850;2023-02-03T21:29:22;19.53;;;6.67;;
51602;SDS011;37954;51.980;5.850;2023-02-03T21:33:37;11.83;;;3.40;;
51602;SDS011;37954;51.980;5.850;2023-02-03T21:37:56;15.93;;;4.60;;
51602;SDS011;37954;51.980;5.850;2023-02-03T21:42:31;11.00;;;3.90;;
51602;SDS011;37954;51.980;5.850;2023-02-03T21:46:52;18.90;;;4.20;;
51602;SDS011;37954;51.980;5.850;2023-02-03T21:51:12;18.37;;;3.20;;
51602;SDS011;37954;51.980;5.850;2023-02-03T21:55:27;9.73;;;3.07;;
51602;SDS011;37954;51.980;5.850;2023-02-03T21:59:39;15.33;;;3.70;;
51602;SDS011;37954;51.980;5.850;2023-02-03T22:03:57;10.37;;;2.53;;
51602;SDS011;37954;51.980;5.850;2023-02-03T22:08:21;7.17;;;2.27;;
51602;SDS011;37954;51.980;5.850;2023-02-03T22:12:33;5.80;;;2.30;;
51602;SDS011;37954;51.980;5.850;2023-02-03T22:16:45;13.57;;;3.23;;
51602;SDS011;37954;51.980;5.850;2023-02-03T22:20:57;15.83;;;3.40;;
51602;SDS011;37954;51.980;5.850;2023-02-03T22:25:09;14.13;;;2.70;;
51602;SDS011;37954;51.980;5.850;2023-02-03T22:29:21;10.73;;;2.60;;
51602;SDS011;37954;51.980;5.850;2023-02-03T22:33:33;10.93;;;2.97;;
51602;SDS011;37954;51.980;5.850;2023-02-03T22:37:45;15.27;;;2.77;;
51602;SDS011;37954;51.980;5.850;2023-02-03T22:41:57;19.67;;;3.20;;
51602;SDS011;37954;51.980;5.850;2023-02-03T22:46:09;9.13;;;2.47;;
51602;SDS011;37954;51.980;5.850;2023-02-03T22:50:21;10.63;;;2.30;;
51602;SDS011;37954;51.980;5.850;2023-02-03T22:54:45;16.13;;;3.37;;
51602;SDS011;37954;51.980;5.850;2023-02-03T22:58:57;13.93;;;2.97;;
51602;SDS011;37954;51.980;5.850;2023-02-03T23:03:09;9.43;;;2.90;;
51602;SDS011;37954;51.980;5.850;2023-02-03T23:07:21;11.67;;;3.20;;
51602;SDS011;37954;51.980;5.850;2023-02-03T23:11:32;10.57;;;2.90;;
51602;SDS011;37954;51.980;5.850;2023-02-03T23:15:44;12.03;;;2.93;;
51602;SDS011;37954;51.980;5.850;2023-02-03T23:19:56;11.40;;;2.70;;
51602;SDS011;37954;51.980;5.850;2023-02-03T23:24:08;10.20;;;2.80;;
51602;SDS011;37954;51.980;5.850;2023-02-03T23:28:19;11.10;;;2.53;;
51602;SDS011;37954;51.980;5.850;2023-02-03T23:32:31;18.67;;;3.27;;
51602;SDS011;37954;51.980;5.850;2023-02-03T23:36:44;9.93;;;2.73;;
51602;SDS011;37954;51.980;5.850;2023-02-03T23:40:55;12.17;;;2.67;;
51602;SDS011;37954;51.980;5.850;2023-02-03T23:45:07;11.73;;;2.70;;
51602;SDS011;37954;51.980;5.850;2023-02-03T23:49:22;10.77;;;2.53;;
51602;SDS011;37954;51.980;5.850;2023-02-03T23:53:33;13.20;;;3.10;;
51602;SDS011;37954;51.980;5.850;2023-02-03T23:57:45;9.90;;;3.07;;
